Time;durP1;ratioP1;P1;durP2;ratioP2;P2;SDS_P1;SDS_P2;PMS_P1;PMS_P2;Temp;Humidity;BMP_temperature;BMP_pressure;BME280_temperature;BME280_humidity;BME280_pressure;Samples;Min_cycle;Max_cycle;Signal;HPM_P1;HPM_P2
2021/09/04 00:00:19;;;;;;;;;10.00;10.00;;;;;27.83;34.39;101125.94;144240;570;132910;-80
2021/09/04 00:02:53;;;;;;;;;10.00;10.00;;;;;27.89;34.60;101134.44;144263;610;132008;-81
2021/09/04 00:05:28;;;;;;;;;11.75;9.00;;;;;28.12;34.17;101127.72;144233;611;132018;-88
2021/09/04 00:08:02;;;;;;;;;9.50;9.25;;;;;28.23;34.14;101125.81;144275;580;131020;-88
2021/09/04 00:10:36;;;;;;;;;10.00;9.00;;;;;28.40;33.83;101125.03;144244;563;132909;-86
2021/09/04 00:13:10;;;;;;;;;9.00;9.00;;;;;28.53;33.72;101128.22;144254;656;131020;-85
2021/09/04 00:15:44;;;;;;;;;10.00;10.00;;;;;28.59;33.46;101112.44;144237;582;131910;-85
2021/09/04 00:18:18;;;;;;;;;9.25;9.25;;;;;28.66;33.56;101110.84;144261;564;132006;-77
2021/09/04 00:20:52;;;;;;;;;11.25;10.25;;;;;28.69;33.71;101115.94;144236;621;131910;-77
2021/09/04 00:23:26;;;;;;;;;8.50;8.50;;;;;28.71;33.16;101100.44;144266;571;131021;-80
2021/09/04 00:26:05;;;;;;;;;11.50;11.50;;;;;28.78;33.36;101097.97;144243;626;131020;-81
2021/09/04 00:28:39;;;;;;;;;9.50;9.50;;;;;28.79;33.24;101095.13;144266;569;131021;-81
2021/09/04 00:31:13;;;;;;;;;10.00;9.50;;;;;28.83;33.06;101092.97;144248;604;131910;-82
2021/09/04 00:33:47;;;;;;;;;7.75;7.75;;;;;28.84;33.19;101098.22;144272;692;131022;-82
2021/09/04 00:36:21;;;;;;;;;10.00;8.75;;;;;28.90;32.71;101104.00;144242;615;131910;-82
2021/09/04 00:38:55;;;;;;;;;8.00;8.00;;;;;28.87;32.70;101103.31;144255;624;131020;-81
2021/09/04 00:41:29;;;;;;;;;9.25;9.25;;;;;28.84;32.98;101092.81;144243;642;132909;-78
2021/09/04 00:44:03;;;;;;;;;10.00;10.00;;;;;28.81;32.88;101087.69;144272;733;131021;-82
2021/09/04 00:46:37;;;;;;;;;8.75;7.50;;;;;28.81;33.09;101081.47;144233;641;131016;-83
2021/09/04 00:49:11;;;;;;;;;8.25;8.25;;;;;28.81;32.86;101085.00;144275;576;131020;-82
2021/09/04 00:51:45;;;;;;;;;10.50;10.25;;;;;28.84;33.24;101087.41;144239;594;132020;-84
2021/09/04 00:54:19;;;;;;;;;8.50;8.50;;;;;28.83;33.05;101085.72;144270;592;131012;-86
2021/09/04 00:56:54;;;;;;;;;7.50;7.50;;;;;28.76;33.19;101084.63;144259;593;131909;-85
2021/09/04 00:59:29;;;;;;;;;7.00;7.00;;;;;28.75;33.27;101077.53;144278;611;131020;-87
2021/09/04 01:02:04;;;;;;;;;9.50;9.50;;;;;28.76;33.19;101081.94;144248;613;131909;-81
2021/09/04 01:04:38;;;;;;;;;8.25;8.25;;;;;28.77;33.26;101085.47;144262;566;131020;-76
2021/09/04 01:07:12;;;;;;;;;9.50;9.25;;;;;28.79;33.28;101081.63;144240;605;132910;-78
2021/09/04 01:09:45;;;;;;;;;10.25;9.50;;;;;28.81;33.28;101082.28;144263;603;131020;-80
2021/09/04 01:12:19;;;;;;;;;9.00;9.00;;;;;28.79;33.39;101078.06;144244;660;132020;-82
2021/09/04 01:14:53;;;;;;;;;7.25;7.25;;;;;28.86;33.02;101080.00;144275;582;131021;-82
2021/09/04 01:17:27;;;;;;;;;9.00;8.50;;;;;28.91;33.18;101075.97;144241;580;132909;-81
2021/09/04 01:20:01;;;;;;;;;8.50;8.50;;;;;28.93;33.01;101072.13;144278;586;131021;-81
2021/09/04 01:22:36;;;;;;;;;10.00;10.00;;;;;28.91;33.31;101070.56;144258;582;131019;-81
2021/09/04 01:25:12;;;;;;;;;10.75;8.75;;;;;28.80;33.46;101064.41;144266;586;131022;-79
2021/09/04 01:27:46;;;;;;;;;6.75;6.00;;;;;28.75;33.28;101069.41;144246;634;132909;-80
2021/09/04 01:30:20;;;;;;;;;8.50;8.50;;;;;28.63;33.52;101066.09;144261;572;131021;-80
2021/09/04 01:32:54;;;;;;;;;9.50;8.50;;;;;28.67;32.96;101062.06;144247;670;131909;-78
2021/09/04 01:35:29;;;;;;;;;9.00;9.00;;;;;28.67;33.44;101066.63;144275;614;132008;-76
2021/09/04 01:38:03;;;;;;;;;6.75;6.75;;;;;28.71;33.61;101065.31;144245;624;131016;-76
2021/09/04 01:40:37;;;;;;;;;9.50;7.75;;;;;28.47;33.70;101069.44;144275;576;131012;-75
2021/09/04 01:43:11;;;;;;;;;10.00;8.50;;;;;28.61;33.35;101067.19;144239;578;131910;-76
2021/09/04 01:45:45;;;;;;;;;10.50;9.25;;;;;28.56;33.41;101072.22;144277;563;131008;-76
2021/09/04 01:48:19;;;;;;;;;9.50;8.50;;;;;28.58;33.66;101064.81;144255;595;131018;-75
2021/09/04 01:50:53;;;;;;;;;6.25;6.25;;;;;28.53;34.00;101074.22;144277;569;131013;-75
2021/09/04 01:53:27;;;;;;;;;11.25;10.00;;;;;28.44;34.01;101069.72;144241;609;132020;-80
2021/09/04 01:56:01;;;;;;;;;12.50;7.75;;;;;28.46;34.21;101075.84;144257;627;131020;-81
2021/09/04 01:58:35;;;;;;;;;8.25;7.75;;;;;28.46;34.17;101081.25;144239;578;132910;-75
2021/09/04 02:01:09;;;;;;;;;10.25;9.00;;;;;28.38;34.30;101078.44;144276;643;131020;-79
2021/09/04 02:03:43;;;;;;;;;9.25;7.75;;;;;28.41;34.32;101078.13;144237;585;132020;-77
2021/09/04 02:06:17;;;;;;;;;11.75;10.00;;;;;28.38;34.02;101075.75;144269;584;131023;-76
2021/09/04 02:08:51;;;;;;;;;9.00;9.00;;;;;28.34;34.03;101074.34;144226;621;131909;-76
2021/09/04 02:11:24;;;;;;;;;9.25;9.25;;;;;28.33;34.42;101078.03;144275;579;131020;-78
2021/09/04 02:13:58;;;;;;;;;8.50;8.25;;;;;28.25;34.52;101081.47;144251;564;131017;-77
2021/09/04 02:16:32;;;;;;;;;11.00;11.00;;;;;28.24;34.38;101079.81;144277;616;131008;-76
2021/09/04 02:19:06;;;;;;;;;10.25;10.00;;;;;28.25;34.67;101076.06;144234;602;131909;-76
2021/09/04 02:21:40;;;;;;;;;8.75;8.25;;;;;28.22;34.56;101075.53;144257;583;131023;-76
2021/09/04 02:24:14;;;;;;;;;12.00;11.75;;;;;28.17;34.58;101074.16;144242;570;131032;-78
2021/09/04 02:26:48;;;;;;;;;10.00;10.00;;;;;28.13;34.87;101070.06;144263;620;131021;-79
2021/09/04 02:29:22;;;;;;;;;10.50;9.50;;;;;28.12;35.43;101062.94;144231;589;131909;-78
2021/09/04 02:31:56;;;;;;;;;10.00;9.00;;;;;28.15;35.24;101061.81;144269;570;131022;-78
2021/09/04 02:34:30;;;;;;;;;9.75;9.75;;;;;28.19;35.07;101050.53;144244;599;131018;-79
2021/09/04 02:37:04;;;;;;;;;8.75;8.75;;;;;28.23;35.12;101050.22;144276;595;131023;-79
2021/09/04 02:39:38;;;;;;;;;9.75;8.50;;;;;28.21;35.14;101045.00;144256;576;131909;-78
2021/09/04 02:42:12;;;;;;;;;10.50;10.25;;;;;28.07;34.89;101046.34;144270;564;131021;-79
2021/09/04 02:44:47;;;;;;;;;9.00;9.00;;;;;28.07;35.13;101051.75;144241;663;131909;-78
2021/09/04 02:47:21;;;;;;;;;13.00;10.00;;;;;28.06;35.05;101063.53;144253;625;131024;-78
2021/09/04 02:49:54;;;;;;;;;9.75;8.00;;;;;28.08;35.21;101058.00;144243;578;131017;-78
2021/09/04 02:52:28;;;;;;;;;9.75;9.75;;;;;28.14;34.95;101052.84;144276;645;131020;-78
2021/09/04 02:55:02;;;;;;;;;8.50;7.75;;;;;28.20;34.93;101049.56;144238;611;131909;-78
2021/09/04 02:57:36;;;;;;;;;10.00;10.00;;;;;28.29;34.46;101047.78;144274;590;131009;-78
2021/09/04 03:00:11;;;;;;;;;9.25;9.25;;;;;28.37;34.49;101038.94;144241;607;131909;-84
2021/09/04 03:02:47;;;;;;;;;8.00;8.00;;;;;28.31;34.25;101028.72;144270;652;131022;-85
2021/09/04 03:05:22;;;;;;;;;13.25;11.50;;;;;28.28;34.33;101032.59;144253;569;131910;-89
2021/09/04 03:07:55;;;;;;;;;11.00;10.00;;;;;28.20;34.82;101030.66;144264;612;131022;-91
2021/09/04 03:10:30;;;;;;;;;11.00;11.00;;;;;28.19;34.67;101037.03;144230;586;132910;-80
2021/09/04 03:13:04;;;;;;;;;10.00;10.00;;;;;28.16;34.43;101025.72;144249;786;131023;-82
2021/09/04 03:15:38;;;;;;;;;9.25;9.25;;;;;28.05;34.71;101040.25;144229;614;131020;-78
2021/09/04 03:18:12;;;;;;;;;8.75;8.75;;;;;28.04;34.75;101033.16;144271;587;131021;-79
2021/09/04 03:20:46;;;;;;;;;10.25;10.25;;;;;28.05;34.86;101031.28;144237;586;131017;-79
2021/09/04 03:23:20;;;;;;;;;9.75;8.00;;;;;28.03;35.02;101031.44;144264;598;131008;-77
2021/09/04 03:25:54;;;;;;;;;9.75;9.75;;;;;28.11;34.62;101031.53;144242;612;131895;-88
2021/09/04 03:28:27;;;;;;;;;12.00;10.00;;;;;28.17;34.62;101040.87;144268;580;131020;-87
2021/09/04 03:31:01;;;;;;;;;9.75;8.00;;;;;28.26;34.53;101040.00;144232;638;131020;-81
2021/09/04 03:33:35;;;;;;;;;10.00;10.00;;;;;28.19;34.51;101031.66;144265;566;131013;-81
2021/09/04 03:36:09;;;;;;;;;11.00;11.00;;;;;28.20;34.16;101038.75;144231;609;131909;-74
2021/09/04 03:38:43;;;;;;;;;9.50;9.25;;;;;28.23;34.40;101042.12;144258;570;131020;-79
2021/09/04 03:41:17;;;;;;;;;12.75;10.50;;;;;28.25;34.21;101032.88;144234;578;132020;-78
2021/09/04 03:43:51;;;;;;;;;9.00;9.00;;;;;28.28;34.27;101042.53;144265;566;131020;-76
2021/09/04 03:46:25;;;;;;;;;11.00;11.00;;;;;28.26;34.00;101040.00;144237;567;132910;-81
2021/09/04 03:49:00;;;;;;;;;11.75;11.00;;;;;28.23;34.07;101056.50;144262;609;131021;-87
2021/09/04 03:51:36;;;;;;;;;11.00;10.25;;;;;28.24;34.17;101065.44;144235;616;131909;-91
2021/09/04 03:54:11;;;;;;;;;11.50;11.50;;;;;28.34;33.98;101055.44;144264;601;131020;-92
2021/09/04 03:56:46;;;;;;;;;10.50;10.50;;;;;28.34;34.13;101056.28;144241;711;131024;-92
2021/09/04 03:59:21;;;;;;;;;14.00;12.50;;;;;28.32;33.91;101065.53;144261;571;131022;-95
2021/09/04 04:01:55;;;;;;;;;12.50;12.25;;;;;28.27;34.09;101062.44;144229;577;131909;-76
2021/09/04 04:04:29;;;;;;;;;15.75;12.25;;;;;28.20;34.07;101071.13;144249;597;131021;-75
2021/09/04 04:07:06;;;;;;;;;10.25;10.25;;;;;28.11;34.39;101063.94;144231;604;131016;-75
2021/09/04 04:09:40;;;;;;;;;13.00;11.75;;;;;27.95;35.16;101053.75;144259;626;131012;-76
2021/09/04 04:12:14;;;;;;;;;16.75;16.00;;;;;27.85;35.09;101061.03;144224;607;132019;-75
2021/09/04 04:14:47;;;;;;;;;13.50;13.00;;;;;27.80;35.48;101066.03;144259;592;131012;-75
2021/09/04 04:17:21;;;;;;;;;11.25;11.25;;;;;27.74;35.57;101063.94;144230;620;131910;-75
2021/09/04 04:19:55;;;;;;;;;13.50;12.75;;;;;27.74;36.08;101064.75;144253;575;131023;-75
2021/09/04 04:22:29;;;;;;;;;11.00;11.00;;;;;27.68;36.00;101059.94;144231;625;131909;-83
2021/09/04 04:25:03;;;;;;;;;11.00;9.25;;;;;27.80;35.53;101066.03;144263;595;131012;-82
2021/09/04 04:27:38;;;;;;;;;13.50;11.25;;;;;27.87;35.53;101078.78;144237;601;131909;-83
2021/09/04 04:30:13;;;;;;;;;12.75;12.75;;;;;27.94;35.41;101081.75;144257;590;131022;-83
2021/09/04 04:32:47;;;;;;;;;11.75;11.75;;;;;28.03;35.53;101090.81;144230;597;131017;-82
2021/09/04 04:35:21;;;;;;;;;13.75;11.75;;;;;28.04;35.55;101100.63;144256;629;131021;-89
2021/09/04 04:37:55;;;;;;;;;11.75;11.75;;;;;28.00;35.29;101099.22;144235;572;131909;-85
2021/09/04 04:40:29;;;;;;;;;12.00;10.75;;;;;28.00;35.15;101093.81;144254;583;131021;-91
2021/09/04 04:43:03;;;;;;;;;17.75;15.75;;;;;27.95;35.76;101098.78;144226;565;132010;-89
2021/09/04 04:45:36;;;;;;;;;17.00;15.75;;;;;27.91;35.95;101100.06;144258;610;131022;-91
2021/09/04 04:48:10;;;;;;;;;15.50;14.50;;;;;27.95;35.77;101098.78;144238;571;131910;-91
2021/09/04 04:50:44;;;;;;;;;14.75;14.00;;;;;27.73;36.17;101100.81;144257;601;131020;-82
2021/09/04 04:53:18;;;;;;;;;13.00;12.25;;;;;27.82;35.89;101097.25;144224;620;131016;-81
2021/09/04 04:55:55;;;;;;;;;12.25;10.25;;;;;27.94;35.93;101099.75;144252;591;131023;-82
2021/09/04 04:58:29;;;;;;;;;15.75;13.50;;;;;28.13;35.82;101099.75;144226;597;131909;-80
2021/09/04 05:01:03;;;;;;;;;14.00;11.50;;;;;28.23;35.41;101099.69;144259;577;131012;-81
2021/09/04 05:03:37;;;;;;;;;12.00;11.25;;;;;28.34;35.25;101090.53;144227;620;131910;-77
2021/09/04 05:06:11;;;;;;;;;13.00;11.75;;;;;28.51;35.07;101078.94;144264;600;131020;-83
2021/09/04 05:08:45;;;;;;;;;11.50;11.50;;;;;28.60;34.57;101090.66;144231;565;132018;-83
2021/09/04 05:11:18;;;;;;;;;15.50;12.50;;;;;28.70;34.59;101079.81;144259;596;131021;-82
2021/09/04 05:13:52;;;;;;;;;10.00;10.00;;;;;28.82;34.37;101084.00;144239;606;132909;-84
2021/09/04 05:16:27;;;;;;;;;12.75;12.00;;;;;29.03;34.42;101074.72;144257;589;131021;-94
2021/09/04 05:19:01;;;;;;;;;11.50;11.50;;;;;29.28;34.04;101078.53;144236;577;131021;-92
2021/09/04 05:21:39;;;;;;;;;8.50;8.50;;;;;29.52;33.94;101085.97;144252;564;131020;-91
2021/09/04 05:24:14;;;;;;;;;10.00;10.00;;;;;29.82;33.71;101083.78;144246;588;132018;-82
2021/09/04 05:26:48;;;;;;;;;12.25;11.00;;;;;30.05;33.54;101092.22;144268;583;131021;-82
2021/09/04 05:29:22;;;;;;;;;8.50;8.50;;;;;30.17;33.13;101094.69;144236;563;132909;-79
2021/09/04 05:31:55;;;;;;;;;11.00;11.00;;;;;30.31;33.12;101102.16;144262;650;131021;-79
2021/09/04 05:34:29;;;;;;;;;13.75;12.25;;;;;30.50;32.85;101100.25;144225;571;132018;-78
2021/09/04 05:37:03;;;;;;;;;10.25;10.25;;;;;30.64;32.10;101096.03;144270;577;132020;-86
2021/09/04 05:39:37;;;;;;;;;13.50;13.25;;;;;30.79;32.18;101091.66;144239;586;131017;-78
2021/09/04 05:42:11;;;;;;;;;12.25;11.50;;;;;30.92;31.59;101084.91;144260;578;131020;-78
2021/09/04 05:44:45;;;;;;;;;9.75;9.25;;;;;30.89;31.44;101086.09;144236;603;132909;-91
2021/09/04 05:47:19;;;;;;;;;13.50;11.75;;;;;30.95;31.16;101098.97;144253;578;131022;-78
2021/09/04 05:49:53;;;;;;;;;12.75;12.25;;;;;31.05;30.92;101107.81;144232;607;131909;-75
2021/09/04 05:52:26;;;;;;;;;13.25;12.00;;;;;31.20;31.36;101109.88;144261;592;131020;-73
2021/09/04 05:55:00;;;;;;;;;11.00;11.00;;;;;31.37;30.76;101110.69;144231;588;131910;-79
2021/09/04 05:57:34;;;;;;;;;16.50;15.00;;;;;31.42;30.66;101111.03;144260;578;131020;-80
2021/09/04 06:00:09;;;;;;;;;12.50;12.00;;;;;31.51;30.60;101104.59;144233;571;132909;-76
2021/09/04 06:02:43;;;;;;;;;13.00;13.00;;;;;31.59;30.73;101100.16;144258;610;131023;-78
2021/09/04 06:05:17;;;;;;;;;14.00;13.00;;;;;31.87;30.11;101087.94;144238;604;131016;-75
2021/09/04 06:07:51;;;;;;;;;9.50;9.50;;;;;32.06;29.19;101091.28;144262;581;131008;-80
2021/09/04 06:10:25;;;;;;;;;12.50;12.50;;;;;32.06;29.03;101083.97;144239;566;131910;-81
2021/09/04 06:12:59;;;;;;;;;14.25;13.75;;;;;32.18;29.42;101095.31;144250;600;131008;-80
2021/09/04 06:15:33;;;;;;;;;12.50;12.00;;;;;32.27;29.39;101087.13;144237;699;131020;-90
2021/09/04 06:18:07;;;;;;;;;13.25;13.25;;;;;32.50;28.89;101095.34;144267;613;131040;-78
2021/09/04 06:20:40;;;;;;;;;10.75;9.75;;;;;32.63;28.71;101105.63;144233;586;131020;-78
2021/09/04 06:23:14;;;;;;;;;10.00;10.00;;;;;32.61;29.23;101094.09;144270;564;131021;-76
2021/09/04 06:25:49;;;;;;;;;11.25;10.25;;;;;32.65;29.15;101092.72;144225;586;132010;-77
2021/09/04 06:28:22;;;;;;;;;12.00;11.00;;;;;32.94;29.24;101077.59;144260;630;131008;-77
2021/09/04 06:30:56;;;;;;;;;8.00;8.00;;;;;31.94;30.79;101087.25;144236;655;132020;-76
2021/09/04 06:33:30;;;;;;;;;7.25;7.25;;;;;32.11;31.42;101096.16;144276;584;132000;-76
2021/09/04 06:36:04;;;;;;;;;9.00;9.00;;;;;32.04;31.34;101090.59;144249;759;131012;-82
2021/09/04 06:38:38;;;;;;;;;8.75;8.00;;;;;32.05;31.07;101097.72;144267;588;131012;-79
2021/09/04 06:41:12;;;;;;;;;7.25;6.75;;;;;31.75;32.20;101102.88;144245;602;131912;-78
2021/09/04 06:43:46;;;;;;;;;8.75;7.00;;;;;31.61;32.56;101101.72;144274;647;131020;-75
2021/09/04 06:46:20;;;;;;;;;6.75;6.75;;;;;30.90;33.40;101082.38;144249;580;131911;-73
2021/09/04 06:48:54;;;;;;;;;6.50;5.50;;;;;31.20;33.39;101080.03;144273;581;131020;-73
2021/09/04 06:51:28;;;;;;;;;5.50;5.50;;;;;31.54;32.77;101087.97;144244;626;131016;-73
2021/09/04 06:54:02;;;;;;;;;7.50;7.50;;;;;31.30;33.75;101075.28;144278;696;131021;-75
2021/09/04 06:56:36;;;;;;;;;6.75;6.75;;;;;31.03;33.98;101084.63;144249;580;131938;-74
2021/09/04 06:59:10;;;;;;;;;6.75;6.75;;;;;30.66;34.44;101084.03;144282;623;131020;-74
2021/09/04 07:01:44;;;;;;;;;5.25;5.25;;;;;30.94;33.76;101072.03;144245;648;131012;-72
2021/09/04 07:04:18;;;;;;;;;4.50;4.50;;;;;30.88;34.20;101071.69;144266;681;131020;-74
2021/09/04 07:06:52;;;;;;;;;5.00;5.00;;;;;31.24;33.64;101077.84;144249;709;131912;-74
2021/09/04 07:09:26;;;;;;;;;4.00;4.00;;;;;31.30;33.15;101074.44;144279;619;131021;-74
2021/09/04 07:12:00;;;;;;;;;3.50;3.50;;;;;31.71;33.14;101066.25;144246;588;131911;-75
2021/09/04 07:14:34;;;;;;;;;7.25;6.25;;;;;31.71;33.02;101071.69;144279;793;131008;-74
2021/09/04 07:17:08;;;;;;;;;8.00;8.00;;;;;30.15;34.66;101081.28;144248;601;131911;-74
2021/09/04 07:19:42;;;;;;;;;5.00;5.00;;;;;29.27;36.75;101082.25;144271;611;131999;-74
2021/09/04 07:22:16;;;;;;;;;6.50;6.25;;;;;29.18;37.27;101099.38;144257;625;131912;-74
2021/09/04 07:24:50;;;;;;;;;9.00;7.50;;;;;29.11;36.95;101088.31;144279;577;131020;-74
2021/09/04 07:27:23;;;;;;;;;6.00;6.00;;;;;29.36;37.07;101093.97;144245;565;131016;-73
2021/09/04 07:29:57;;;;;;;;;7.75;7.25;;;;;29.07;37.49;101086.09;144261;585;131020;-72
2021/09/04 07:32:31;;;;;;;;;0.00;0.00;;;;;29.18;37.54;101097.53;144246;592;131021;-72
2021/09/04 07:35:05;;;;;;;;;7.00;7.00;;;;;29.88;35.94;101101.28;144277;564;131020;-74
2021/09/04 07:37:40;;;;;;;;;5.25;5.25;;;;;29.17;36.99;101105.78;144248;617;132912;-74
2021/09/04 07:40:15;;;;;;;;;7.00;7.00;;;;;28.90;37.28;101102.16;144273;606;131020;-73
2021/09/04 07:42:49;;;;;;;;;8.50;7.25;;;;;29.03;37.33;101101.75;144244;571;132912;-75
2021/09/04 07:45:24;;;;;;;;;6.00;5.50;;;;;29.13;37.37;101102.53;144280;766;131021;-75
2021/09/04 07:47:58;;;;;;;;;6.75;6.75;;;;;30.41;34.93;101117.44;144255;597;131911;-73
2021/09/04 07:50:32;;;;;;;;;5.25;5.25;;;;;29.26;36.38;101112.97;144280;574;131020;-74
2021/09/04 07:53:06;;;;;;;;;5.00;5.00;;;;;29.25;36.79;101115.84;144248;573;132911;-74
2021/09/04 07:55:44;;;;;;;;;6.50;6.50;;;;;30.35;34.76;101113.53;144265;641;131010;-74
2021/09/04 07:58:19;;;;;;;;;6.50;6.50;;;;;30.50;34.63;101125.47;144248;728;131020;-74
2021/09/04 08:00:53;;;;;;;;;8.75;8.75;;;;;30.11;34.97;101138.63;144281;627;131009;-74
2021/09/04 08:03:37;;;;;;;;;7.50;7.50;;;;;31.11;32.93;101149.69;144253;575;131038;-74
2021/09/04 08:06:26;;;;;;;;;7.50;7.50;;;;;29.68;35.21;101161.00;144277;599;131008;-74
2021/09/04 08:09:09;;;;;;;;;5.00;5.00;;;;;29.71;35.67;101160.66;144254;691;131010;-74
2021/09/04 08:11:43;;;;;;;;;8.50;8.50;;;;;29.50;36.03;101158.31;144277;574;131012;-74
2021/09/04 08:14:17;;;;;;;;;7.50;7.50;;;;;29.89;35.59;101167.94;144253;581;132018;-72
2021/09/04 08:16:51;;;;;;;;;6.75;6.75;;;;;29.97;35.29;101164.44;144280;591;131023;-73
2021/09/04 08:19:25;;;;;;;;;4.25;3.00;;;;;29.67;35.53;101155.75;144244;770;131911;-73
2021/09/04 08:21:59;;;;;;;;;9.25;9.25;;;;;29.18;36.25;101159.72;144251;564;131021;-72
2021/09/04 08:24:33;;;;;;;;;7.25;7.25;;;;;30.98;33.06;101146.59;144245;671;131911;-73
2021/09/04 08:27:07;;;;;;;;;10.25;10.25;;;;;29.38;35.72;101144.19;144276;570;131008;-72
2021/09/04 08:29:41;;;;;;;;;11.25;9.25;;;;;29.23;36.10;101150.28;144242;577;132912;-72
2021/09/04 08:32:15;;;;;;;;;10.25;9.00;;;;;29.28;35.62;101169.59;144279;612;131020;-72
2021/09/04 08:34:49;;;;;;;;;6.00;6.00;;;;;29.87;35.22;101169.97;144243;595;131912;-72
2021/09/04 08:37:23;;;;;;;;;6.00;6.00;;;;;29.91;35.28;101178.59;144276;608;131022;-72
2021/09/04 08:39:57;;;;;;;;;8.75;8.75;;;;;30.78;33.51;101165.00;144246;668;132911;-72
2021/09/04 08:42:31;;;;;;;;;9.00;8.75;;;;;30.89;33.58;101152.00;144268;583;131998;-71
2021/09/04 08:45:05;;;;;;;;;8.75;8.75;;;;;30.52;34.19;101158.66;144246;565;131911;-72
2021/09/04 08:47:39;;;;;;;;;10.50;9.50;;;;;31.11;33.32;101162.37;144250;569;131020;-72
2021/09/04 08:50:15;;;;;;;;;8.00;8.00;;;;;31.14;32.53;101151.19;144239;570;132020;-72
2021/09/04 08:52:49;;;;;;;;;8.00;8.00;;;;;30.64;32.98;101144.81;144272;618;132006;-72
2021/09/04 08:55:23;;;;;;;;;8.25;8.25;;;;;31.05;33.14;101163.91;144240;583;131911;-72
2021/09/04 08:57:58;;;;;;;;;9.50;9.50;;;;;30.91;32.73;101165.37;144277;706;131020;-71
2021/09/04 09:00:40;;;;;;;;;9.25;9.25;;;;;31.25;31.85;101158.16;144244;581;131912;-72
2021/09/04 09:03:31;;;;;;;;;9.50;9.00;;;;;31.53;31.39;101156.81;144276;578;131022;-72
2021/09/04 09:06:05;;;;;;;;;8.50;8.50;;;;;30.98;32.74;101162.84;144256;732;131912;-72
2021/09/04 09:08:48;;;;;;;;;4.50;4.50;;;;;30.42;33.37;101166.03;144278;589;131021;-72
2021/09/04 09:11:22;;;;;;;;;9.25;8.00;;;;;30.84;32.28;101172.50;144246;605;131911;-72
2021/09/04 09:13:58;;;;;;;;;9.75;9.75;;;;;30.86;32.83;101162.31;144261;575;131021;-71
2021/09/04 09:16:32;;;;;;;;;7.75;7.75;;;;;30.82;32.96;101150.94;144245;569;132911;-72
2021/09/04 09:19:08;;;;;;;;;7.00;7.00;;;;;30.65;33.55;101151.94;144278;678;131020;-71
2021/09/04 09:21:45;;;;;;;;;10.50;10.50;;;;;31.10;32.42;101150.72;144249;595;131012;-72
2021/09/04 09:24:22;;;;;;;;;10.50;10.50;;;;;30.94;33.04;101128.97;144267;563;131020;-72
2021/09/04 09:27:01;;;;;;;;;9.50;9.00;;;;;30.64;33.04;101129.41;144239;569;132042;-72
2021/09/04 09:29:37;;;;;;;;;10.75;10.75;;;;;30.65;33.28;101131.09;144277;565;131021;-71
2021/09/04 09:32:16;;;;;;;;;10.50;10.50;;;;;30.64;33.40;101123.97;144232;602;131020;-71
2021/09/04 09:34:50;;;;;;;;;9.00;9.00;;;;;30.51;33.71;101124.47;144263;591;131025;-72
2021/09/04 09:37:24;;;;;;;;;9.25;9.25;;;;;30.84;32.51;101121.00;144243;564;132010;-72
2021/09/04 09:40:02;;;;;;;;;8.50;8.50;;;;;30.79;31.95;101121.47;144261;577;131022;-72
2021/09/04 09:42:50;;;;;;;;;10.75;10.75;;;;;30.35;33.54;101122.50;144231;646;131912;-73
2021/09/04 09:45:24;;;;;;;;;8.00;8.00;;;;;30.05;34.11;101113.88;144270;584;131023;-72
2021/09/04 09:47:58;;;;;;;;;11.50;10.75;;;;;31.14;32.45;101103.25;144245;641;131911;-73
2021/09/04 09:50:32;;;;;;;;;8.75;8.75;;;;;30.39;33.68;101101.34;144262;617;131021;-72
2021/09/04 09:53:08;;;;;;;;;10.75;10.75;;;;;29.64;34.39;101094.69;144242;608;131021;-72
2021/09/04 09:55:48;;;;;;;;;9.00;9.00;;;;;30.89;32.87;101080.66;144264;571;131020;-73
2021/09/04 09:58:23;;;;;;;;;9.25;9.25;;;;;30.26;33.76;101082.84;144256;609;131038;-72
2021/09/04 10:01:00;;;;;;;;;10.00;10.00;;;;;30.49;33.63;101071.44;144262;629;131021;-72
2021/09/04 10:03:34;;;;;;;;;7.50;7.50;;;;;29.77;34.54;101069.91;144235;661;131911;-72
2021/09/04 10:06:08;;;;;;;;;12.50;9.75;;;;;30.50;33.51;101065.03;144259;564;131020;-72
2021/09/04 10:08:43;;;;;;;;;9.75;8.50;;;;;29.96;34.73;101065.28;144251;581;131911;-72
2021/09/04 10:11:17;;;;;;;;;8.00;8.00;;;;;30.26;33.81;101068.47;144280;592;131022;-72
2021/09/04 10:13:51;;;;;;;;;9.75;8.75;;;;;29.84;35.17;101070.09;144242;598;131911;-72
2021/09/04 10:16:26;;;;;;;;;9.00;9.00;;;;;30.02;35.23;101075.50;144277;737;131020;-72
2021/09/04 10:19:05;;;;;;;;;9.00;8.75;;;;;29.52;36.09;101052.69;144243;589;131911;-72
2021/09/04 10:21:44;;;;;;;;;10.00;10.00;;;;;30.57;33.72;101057.09;144279;603;131012;-71
2021/09/04 10:24:18;;;;;;;;;8.75;8.75;;;;;30.02;35.60;101057.37;144247;606;131936;-75
2021/09/04 10:27:03;;;;;;;;;6.00;6.00;;;;;30.33;35.01;101043.28;144285;740;131012;-75
2021/09/04 10:29:44;;;;;;;;;10.25;9.75;;;;;30.14;34.86;101044.41;144251;625;131912;-74
2021/09/04 10:32:22;;;;;;;;;9.25;9.25;;;;;30.54;34.38;101037.44;144255;694;131020;-75
2021/09/04 10:35:09;;;;;;;;;10.25;8.75;;;;;30.64;33.90;101031.03;144248;588;131010;-74
2021/09/04 10:37:49;;;;;;;;;11.25;11.25;;;;;30.17;34.42;101035.94;144265;573;131020;-76
2021/09/04 10:40:40;;;;;;;;;7.50;7.50;;;;;30.27;34.65;101029.56;144240;566;132020;-75
2021/09/04 10:43:14;;;;;;;;;8.75;8.75;;;;;30.43;34.64;101039.56;144280;578;131008;-76
2021/09/04 10:45:51;;;;;;;;;10.50;10.50;;;;;29.93;34.38;101033.16;144240;633;131911;-77
2021/09/04 10:48:26;;;;;;;;;10.25;10.25;;;;;29.80;35.50;101037.13;144268;569;132010;-76
2021/09/04 10:51:08;;;;;;;;;6.00;6.00;;;;;29.61;35.63;101030.09;144249;603;131017;-76
2021/09/04 10:53:49;;;;;;;;;7.50;7.50;;;;;30.14;34.37;101035.41;144280;599;131008;-75
2021/09/04 10:56:33;;;;;;;;;9.50;9.50;;;;;29.89;35.25;101043.44;144245;591;131016;-75
2021/09/04 10:59:07;;;;;;;;;10.00;9.75;;;;;29.86;35.32;101041.91;144253;614;131021;-75
2021/09/04 11:02:05;;;;;;;;;8.25;8.25;;;;;29.69;35.69;101032.00;144246;604;131911;-75
2021/09/04 11:04:39;;;;;;;;;9.25;8.00;;;;;30.24;35.02;101035.28;144282;579;131020;-76
2021/09/04 11:07:14;;;;;;;;;10.00;10.00;;;;;29.41;36.38;101048.38;144245;583;131911;-75
2021/09/04 11:09:55;;;;;;;;;6.25;6.25;;;;;30.35;35.61;101049.38;144262;602;132012;-75
2021/09/04 11:12:29;;;;;;;;;6.25;6.00;;;;;29.70;36.64;101049.91;144246;612;131017;-76
2021/09/04 11:15:03;;;;;;;;;9.00;9.00;;;;;30.07;35.67;101051.47;144274;574;131020;-74
2021/09/04 11:17:40;;;;;;;;;8.00;7.25;;;;;30.39;34.80;101044.47;144252;580;131911;-77
2021/09/04 11:20:16;;;;;;;;;11.00;10.25;;;;;30.07;35.86;101040.63;144269;602;131021;-76
2021/09/04 11:22:50;;;;;;;;;9.00;9.00;;;;;30.53;35.33;101029.47;144233;584;131016;-76
2021/09/04 11:25:25;;;;;;;;;11.75;10.00;;;;;30.04;35.63;101014.78;144260;596;131020;-76
2021/09/04 11:27:59;;;;;;;;;8.75;8.25;;;;;30.02;36.03;101034.88;144239;664;131017;-77
2021/09/04 11:30:33;;;;;;;;;11.75;8.50;;;;;29.86;36.70;101030.25;144277;595;131021;-77
2021/09/04 11:33:17;;;;;;;;;10.50;9.00;;;;;30.38;35.87;101027.37;144241;642;131016;-77
2021/09/04 11:36:00;;;;;;;;;9.25;9.25;;;;;31.37;34.16;101023.91;144276;569;131008;-78
2021/09/04 11:38:46;;;;;;;;;10.00;10.00;;;;;30.44;35.30;101015.09;144239;776;131911;-76
2021/09/04 11:41:21;;;;;;;;;8.50;8.25;;;;;30.81;34.74;101021.03;144265;570;131008;-77
2021/09/04 11:43:58;;;;;;;;;10.00;10.00;;;;;31.10;34.33;101017.00;144250;650;131017;-76